Bolton Landing, NY (12814)

4:48 PM EST on January 29, 2015 (GMT -0500)
Bolton / Lake George | Change Station
CLOSE
Current Station
Personal Weather Station
Location: Bolton Landing, NY
Elevation: 400 ft
Nearby Weather Stations
Active Advisory: Winter Weather Advisory

Elev 400 ft 43.59 °N, 73.64 °W | Updated 12 minutes ago

Overcast
Overcast
25.1 °F
Feels Like 25 °F
N
0.0
Wind Variable Wind from ESE
Gusts 1.0 mph

Today
High -- | Low -- °F
--% Chance of Precip.
Yesterday
High -- | Low -- °F
Precip. -- in
7:14 AM 5:01 PM
Waxing Gibbous, 77% visible
Pressure 30.11 in
Visibility 10.0 miles
Clouds Clear
Windchill 25 °F
Dew Point 8 °F
Humidity 48%
Rainfall 0.00 in
Snow Depth Not available.
UV 0 out of 12
Pollen .10 out of 12
Air Quality Not available.
Flu Activity Not available.
METAR KGFL 292053Z AUTO 16005KT 10SM CLR M04/M15 A3006 RMK AO2 SLP194 T10441150 56037

More Conditions Fewer Conditions

Pressure 30.11 in
Visibility 10.0 miles
Clouds Clear
Windchill 25 °F
Dew Point 8 °F
Humidity 48%
Rainfall 0.00 in
Snow Depth Not available.
UV 0 out of 12
Pollen .10 out of 12
Air Quality Not available.
Flu Activity Not available.
METAR KGFL 292053Z AUTO 16005KT 10SM CLR M04/M15 A3006 RMK AO2 SLP194 T10441150 56037

More Conditions Fewer Conditions

10-Day Weather Forecast

Almanac

Astronomy

Jan. 29, 2015 Rise Set
Actual Time
Civil Twilight
Nautical Twilight
Astronomical Twilight
Moon
Length of Visible Light
Length of Day
Tomorrow will be .
, % of the Moon is Illuminated

Today's Extremes

State Highs State Lows

Community

WunderPhotos

Upload Photos

1,791,615 photos uploaded!

WunderBlogs® & News

Nearby

Air Quality

  Air Quality AQ Index Pollutant
Not available.

Snow Depth

Station Depth Elevation

Earthquake Activity

City Distance Mag. Time & Date
Minimum magnitude displayed is 2.5.

Coastal Water Temperatures

Place Temperature

Nearby Weather Stations